Time;durP1;ratioP1;P1;durP2;ratioP2;P2;SDS_P1;SDS_P2;PMS_P1;PMS_P2;Temp;Humidity;BMP_temperature;BMP_pressure;BME280_temperature;BME280_humidity;BME280_pressure;Samples;Min_cycle;Max_cycle;Signal;HPM_P1;HPM_P2
2023/07/05 00:01:47;;;;;;;2.95;2.17;;;28.50;54.40;;;;;;5111675;28;20059;-79
2023/07/05 00:04:13;;;;;;;1.98;1.75;;;28.50;54.40;;;;;;5112011;28;20042;-78
2023/07/05 00:06:39;;;;;;;2.60;1.90;;;28.50;54.40;;;;;;5110378;28;20031;-78
2023/07/05 00:09:05;;;;;;;2.15;1.90;;;28.50;54.40;;;;;;5111940;28;20035;-78
2023/07/05 00:11:31;;;;;;;3.92;1.90;;;28.40;54.40;;;;;;5112008;28;20092;-78
2023/07/05 00:13:57;;;;;;;1.85;1.55;;;28.50;54.40;;;;;;5111885;28;20085;-78
2023/07/05 00:16:23;;;;;;;1.98;1.88;;;28.40;54.40;;;;;;5111564;28;20051;-78
2023/07/05 00:18:49;;;;;;;2.35;2.15;;;28.40;54.40;;;;;;5112017;28;20114;-79
2023/07/05 00:21:15;;;;;;;2.53;2.30;;;28.30;54.40;;;;;;5115947;28;20459;-79
2023/07/05 00:23:48;;;;;;;2.80;2.08;;;28.40;54.40;;;;;;5115646;28;20039;-78
2023/07/05 00:26:14;;;;;;;2.45;2.13;;;28.40;54.40;;;;;;5115651;28;20027;-78
2023/07/05 00:28:41;;;;;;;2.88;1.90;;;28.40;54.50;;;;;;5115565;28;20024;-78
2023/07/05 00:31:07;;;;;;;3.35;2.45;;;28.40;54.50;;;;;;5114559;28;20032;-79
2023/07/05 00:33:34;;;;;;;4.05;2.40;;;28.30;54.50;;;;;;5114517;28;20031;-78
2023/07/05 00:36:00;;;;;;;1.73;1.63;;;28.40;54.50;;;;;;5115720;28;20046;-79
2023/07/05 00:38:27;;;;;;;2.20;2.00;;;28.40;54.50;;;;;;5114006;28;20048;-78
2023/07/05 00:40:53;;;;;;;3.95;2.40;;;28.40;54.50;;;;;;5114384;28;20501;-78
2023/07/05 00:43:20;;;;;;;3.47;2.13;;;28.30;54.50;;;;;;5115860;28;20380;-78
2023/07/05 00:45:59;;;;;;;3.17;2.25;;;28.50;54.60;;;;;;5114211;28;20483;-78
2023/07/05 00:48:35;;;;;;;3.22;2.28;;;28.40;54.50;;;;;;5115461;28;20077;-79
2023/07/05 00:51:11;;;;;;;2.22;1.80;;;28.40;54.60;;;;;;5114096;28;20092;-79
2023/07/05 00:53:37;;;;;;;2.20;1.90;;;28.40;54.60;;;;;;5115505;28;20036;-78
2023/07/05 00:56:13;;;;;;;2.70;1.98;;;28.40;54.60;;;;;;5114077;28;20019;-78
2023/07/05 00:58:41;;;;;;;2.13;1.92;;;28.30;54.60;;;;;;5115246;28;20040;-78
2023/07/05 01:01:07;;;;;;;2.30;2.10;;;28.30;54.50;;;;;;5113662;28;20034;-78
2023/07/05 01:03:35;;;;;;;4.20;1.83;;;28.30;54.60;;;;;;5113952;28;20074;-78
2023/07/05 01:06:02;;;;;;;7.60;2.40;;;28.50;54.50;;;;;;5113829;28;20032;-79
2023/07/05 01:08:28;;;;;;;2.65;1.88;;;28.40;54.50;;;;;;5114916;28;20101;-79
2023/07/05 01:11:42;;;;;;;4.03;2.10;;;28.40;54.50;;;;;;5115292;28;20027;-78
2023/07/05 01:14:12;;;;;;;;;;;28.50;54.50;;;;;;5072029;28;20131;-78
2023/07/05 01:16:48;;;;;;;2.28;2.03;;;28.30;54.50;;;;;;5071536;28;19939;-79
2023/07/05 01:19:47;;;;;;;2.30;1.88;;;28.40;54.60;;;;;;5054918;28;20025;-78
2023/07/05 01:22:27;;;;;;;2.53;2.08;;;28.30;54.60;;;;;;5071481;28;20037;-78
2023/07/05 01:25:18;;;;;;;2.17;2.00;;;28.40;54.60;;;;;;5071592;28;20447;-79
2023/07/05 01:28:21;;;;;;;2.88;2.08;;;28.20;54.60;;;;;;5054522;28;20040;-78
2023/07/05 01:30:56;;;;;;;;;;;28.30;54.70;;;;;;5071920;28;20041;-78
2023/07/05 01:33:37;;;;;;;2.80;2.38;;;28.30;54.70;;;;;;5071562;28;20336;-78
2023/07/05 01:36:05;;;;;;;2.10;1.90;;;28.30;54.70;;;;;;5054552;28;20033;-78
2023/07/05 01:38:31;;;;;;;2.13;1.92;;;28.30;54.70;;;;;;5054300;28;20056;-79
2023/07/05 01:41:03;;;;;;;2.88;2.00;;;28.30;54.70;;;;;;5071264;28;20028;-78
2023/07/05 01:43:31;;;;;;;2.90;1.90;;;28.30;54.80;;;;;;5071217;28;20797;-78
2023/07/05 01:46:15;;;;;;;2.33;2.10;;;28.30;54.80;;;;;;5054723;28;20107;-79
2023/07/05 01:48:50;;;;;;;3.63;2.20;;;28.30;54.80;;;;;;5071138;28;20029;-78
2023/07/05 01:51:27;;;;;;;3.92;2.22;;;28.30;54.80;;;;;;5110565;28;20046;-78
2023/07/05 01:54:21;;;;;;;4.65;2.40;;;28.30;54.80;;;;;;5114222;28;20135;-78
2023/07/05 01:56:53;;;;;;;2.72;2.45;;;28.40;54.70;;;;;;5114035;28;20024;-78
2023/07/05 01:59:23;;;;;;;4.30;2.40;;;28.50;54.70;;;;;;5114135;28;20055;-78
2023/07/05 02:01:51;;;;;;;2.72;2.08;;;28.40;54.70;;;;;;5112373;28;20038;-78
2023/07/05 02:04:21;;;;;;;3.05;1.98;;;28.30;54.70;;;;;;5112658;28;20032;-79
2023/07/05 02:06:47;;;;;;;2.10;1.90;;;28.20;54.70;;;;;;5112391;28;20043;-79
2023/07/05 02:09:13;;;;;;;2.60;2.40;;;28.40;54.70;;;;;;5114064;28;20031;-78
2023/07/05 02:11:39;;;;;;;2.20;2.00;;;28.40;54.70;;;;;;5113780;28;20438;-78
2023/07/05 02:14:05;;;;;;;2.75;2.10;;;28.30;54.70;;;;;;5113786;28;20100;-79
2023/07/05 02:16:31;;;;;;;2.78;2.17;;;28.30;54.70;;;;;;5113614;28;20036;-78
2023/07/05 02:18:57;;;;;;;3.17;2.88;;;28.40;54.80;;;;;;5113497;28;20154;-78
2023/07/05 02:21:23;;;;;;;3.67;2.88;;;28.40;54.70;;;;;;5112550;28;20034;-78
2023/07/05 02:23:49;;;;;;;3.70;1.95;;;28.30;54.70;;;;;;5113626;28;20384;-78
2023/07/05 02:26:14;;;;;;;3.20;2.65;;;28.30;54.80;;;;;;5112230;28;20047;-78
2023/07/05 02:28:40;;;;;;;3.45;2.60;;;28.20;54.80;;;;;;5113316;28;20063;-78
2023/07/05 02:31:11;;;;;;;3.35;2.63;;;28.30;54.80;;;;;;5112275;28;20047;-78
2023/07/05 02:33:43;;;;;;;2.83;2.60;;;28.30;54.80;;;;;;5095316;28;20055;-79
2023/07/05 02:36:11;;;;;;;3.10;2.83;;;28.20;54.80;;;;;;5113453;28;20454;-78
2023/07/05 02:38:39;;;;;;;4.82;2.80;;;28.10;54.90;;;;;;5113117;28;20063;-79
2023/07/05 02:41:06;;;;;;;3.35;2.60;;;28.30;54.80;;;;;;5112659;28;20031;-78
2023/07/05 02:43:33;;;;;;;4.20;2.50;;;28.30;54.90;;;;;;5113017;28;20047;-78
2023/07/05 02:45:59;;;;;;;3.33;2.35;;;28.30;54.80;;;;;;5113464;28;20027;-78
2023/07/05 02:48:25;;;;;;;6.65;2.80;;;28.30;54.90;;;;;;5112885;28;20460;-78
2023/07/05 02:50:51;;;;;;;2.88;2.67;;;28.30;54.90;;;;;;5113237;28;20036;-78
2023/07/05 02:53:17;;;;;;;3.25;2.53;;;28.30;54.90;;;;;;5111902;28;20032;-78
2023/07/05 02:55:43;;;;;;;3.00;2.72;;;28.40;54.90;;;;;;5112941;28;20126;-78
2023/07/05 02:58:09;;;;;;;4.70;2.40;;;28.30;54.90;;;;;;5112689;28;20427;-79
2023/07/05 03:00:36;;;;;;;3.28;2.72;;;28.30;54.90;;;;;;5111548;28;20110;-78
2023/07/05 03:03:02;;;;;;;3.50;2.60;;;28.40;54.90;;;;;;5112931;28;20035;-78
2023/07/05 03:05:28;;;;;;;2.95;2.60;;;28.30;54.90;;;;;;5111385;28;20036;-78
2023/07/05 03:07:56;;;;;;;6.43;2.80;;;28.40;54.80;;;;;;5111206;28;20046;-78
2023/07/05 03:10:23;;;;;;;3.63;2.50;;;28.30;54.80;;;;;;5111223;28;20023;-78
2023/07/05 03:12:50;;;;;;;2.60;2.40;;;28.30;54.80;;;;;;5112828;28;20031;-78
2023/07/05 03:15:16;;;;;;;2.63;2.42;;;28.30;54.80;;;;;;5094615;28;20063;-78
2023/07/05 03:17:43;;;;;;;2.40;2.20;;;28.30;54.80;;;;;;5111432;28;20031;-78
2023/07/05 03:20:10;;;;;;;2.63;2.15;;;28.20;54.80;;;;;;5111354;28;20122;-78
2023/07/05 03:22:36;;;;;;;2.45;2.25;;;28.30;54.80;;;;;;5111185;28;20081;-79
2023/07/05 03:25:02;;;;;;;2.25;1.95;;;28.20;54.80;;;;;;5112512;28;20058;-79
2023/07/05 03:27:29;;;;;;;3.75;2.15;;;28.30;54.80;;;;;;5112117;28;20038;-78
2023/07/05 03:29:55;;;;;;;4.38;2.38;;;28.20;54.90;;;;;;5111170;28;20395;-78
2023/07/05 03:32:22;;;;;;;3.10;2.40;;;28.20;54.90;;;;;;5111159;28;20043;-79
2023/07/05 03:34:50;;;;;;;4.28;2.78;;;28.30;54.90;;;;;;5111294;28;20028;-79
2023/07/05 03:37:16;;;;;;;2.80;2.60;;;28.10;54.90;;;;;;5111986;27;20046;-78
2023/07/05 03:39:42;;;;;;;3.88;2.67;;;28.30;54.90;;;;;;5110916;28;20032;-78
2023/07/05 03:42:08;;;;;;;3.70;2.28;;;28.20;55.00;;;;;;5112339;28;20034;-78
2023/07/05 03:44:34;;;;;;;4.20;2.83;;;28.20;55.00;;;;;;5110648;28;20490;-78
2023/07/05 03:47:00;;;;;;;2.58;2.15;;;28.30;55.00;;;;;;5112199;28;20023;-78
2023/07/05 03:49:26;;;;;;;2.75;2.47;;;28.20;55.00;;;;;;5129829;27;20043;-79
2023/07/05 03:51:52;;;;;;;2.72;2.20;;;28.40;55.00;;;;;;5130077;27;20047;-78
2023/07/05 03:54:18;;;;;;;2.75;2.55;;;28.30;55.00;;;;;;5129004;27;20448;-78
2023/07/05 03:56:44;;;;;;;2.63;2.40;;;28.40;55.00;;;;;;5088997;28;20048;-78
2023/07/05 03:59:11;;;;;;;3.40;2.60;;;28.30;55.00;;;;;;5088795;28;20063;-79
2023/07/05 04:01:37;;;;;;;4.18;2.70;;;28.30;54.90;;;;;;5089114;28;20079;-78
2023/07/05 04:04:03;;;;;;;3.55;2.63;;;28.30;55.00;;;;;;5089126;28;20067;-78
2023/07/05 04:06:32;;;;;;;2.90;2.30;;;28.40;55.00;;;;;;5089076;28;20085;-79
2023/07/05 04:08:58;;;;;;;2.42;2.08;;;28.30;55.00;;;;;;5088849;28;20040;-78
2023/07/05 04:11:24;;;;;;;3.67;2.83;;;28.30;54.90;;;;;;5072071;28;20125;-78
2023/07/05 04:13:52;;;;;;;3.55;2.60;;;28.40;54.90;;;;;;5072348;28;20036;-78
2023/07/05 04:16:20;;;;;;;3.72;2.55;;;28.30;54.90;;;;;;5088834;28;20135;-78
2023/07/05 04:18:50;;;;;;;7.70;2.47;;;28.30;54.90;;;;;;5088920;28;20492;-78
2023/07/05 04:21:17;;;;;;;3.50;2.80;;;28.30;54.90;;;;;;5071537;28;20052;-78
2023/07/05 04:23:43;;;;;;;3.90;2.83;;;28.40;54.90;;;;;;5068851;28;20836;-78
2023/07/05 04:26:15;;;;;;;3.15;2.45;;;28.20;54.90;;;;;;5068751;28;20095;-78
2023/07/05 04:28:42;;;;;;;3.30;3.00;;;28.30;54.90;;;;;;5106946;28;20047;-79
2023/07/05 04:31:11;;;;;;;3.40;2.97;;;28.20;54.90;;;;;;5111390;28;20511;-78
2023/07/05 04:33:37;;;;;;;4.72;2.92;;;28.30;54.90;;;;;;5111500;28;20054;-77
2023/07/05 04:36:04;;;;;;;3.05;2.55;;;28.20;54.90;;;;;;5111460;28;20032;-78
2023/07/05 04:38:30;;;;;;;3.85;3.03;;;28.20;54.90;;;;;;5110141;28;20446;-79
2023/07/05 04:40:58;;;;;;;4.55;3.30;;;28.10;54.90;;;;;;5111329;28;20110;-79
2023/07/05 04:43:25;;;;;;;4.68;3.58;;;28.20;55.00;;;;;;5111442;28;20655;-78
2023/07/05 04:45:52;;;;;;;7.72;3.42;;;28.30;55.00;;;;;;5111415;28;20489;-79
2023/07/05 04:48:19;;;;;;;4.45;3.30;;;28.20;55.00;;;;;;5111277;28;20043;-79
2023/07/05 04:50:50;;;;;;;3.28;2.85;;;28.20;55.00;;;;;;5110068;28;20028;-78
2023/07/05 04:53:16;;;;;;;3.63;3.08;;;28.20;55.00;;;;;;5111354;28;20503;-79
2023/07/05 04:55:46;;;;;;;5.32;3.30;;;28.20;55.00;;;;;;5111614;28;20039;-78
2023/07/05 04:58:12;;;;;;;3.25;2.95;;;28.20;55.00;;;;;;5109891;28;20146;-78
2023/07/05 05:00:38;;;;;;;3.08;2.78;;;28.30;55.00;;;;;;5111512;28;20040;-78
2023/07/05 05:03:04;;;;;;;5.72;3.28;;;28.30;55.00;;;;;;5111256;28;20065;-79
2023/07/05 05:05:30;;;;;;;7.07;3.20;;;28.30;55.00;;;;;;5113847;28;20667;-78
2023/07/05 05:07:56;;;;;;;7.25;3.70;;;28.30;55.00;;;;;;5112612;28;20044;-78
2023/07/05 05:10:22;;;;;;;3.60;3.30;;;28.40;55.00;;;;;;5112513;28;20450;-78
2023/07/05 05:12:48;;;;;;;6.22;3.53;;;28.40;55.00;;;;;;5112650;28;20042;-78
2023/07/05 05:15:14;;;;;;;6.05;3.60;;;28.30;55.00;;;;;;5112469;28;20368;-79
2023/07/05 05:17:40;;;;;;;4.72;3.25;;;28.40;54.90;;;;;;5095273;28;20674;-78
2023/07/05 05:20:07;;;;;;;5.35;3.33;;;28.30;54.90;;;;;;5112176;28;20039;-78
2023/07/05 05:22:33;;;;;;;4.07;2.80;;;28.30;54.90;;;;;;5095338;28;20097;-78
2023/07/05 05:24:59;;;;;;;4.75;3.50;;;28.30;54.90;;;;;;5112327;28;20155;-78
2023/07/05 05:27:25;;;;;;;4.28;3.47;;;28.20;54.90;;;;;;5112336;28;20080;-78
2023/07/05 05:29:51;;;;;;;5.40;3.30;;;28.40;54.90;;;;;;5112111;28;20032;-78
2023/07/05 05:32:16;;;;;;;3.97;2.80;;;28.40;54.90;;;;;;5094883;28;20050;-78
2023/07/05 05:34:43;;;;;;;3.65;3.30;;;28.30;54.90;;;;;;5112218;28;20047;-78
2023/07/05 05:37:08;;;;;;;3.88;2.88;;;28.30;54.90;;;;;;5094590;28;20046;-78
2023/07/05 05:39:34;;;;;;;4.05;3.58;;;28.20;54.90;;;;;;5111892;28;20047;-78
2023/07/05 05:42:01;;;;;;;3.95;3.55;;;28.40;54.90;;;;;;5111881;28;20078;-78
2023/07/05 05:44:26;;;;;;;3.92;3.40;;;28.10;55.00;;;;;;5111916;28;20535;-78
2023/07/05 05:46:52;;;;;;;4.13;3.45;;;28.20;55.00;;;;;;5114226;28;20681;-78
2023/07/05 05:49:19;;;;;;;4.43;3.58;;;28.30;55.00;;;;;;5114260;28;20036;-78
2023/07/05 05:51:45;;;;;;;7.45;3.42;;;28.10;55.00;;;;;;5113120;28;20111;-78
2023/07/05 05:54:11;;;;;;;5.13;3.40;;;28.20;55.00;;;;;;5114157;28;20122;-78
2023/07/05 05:56:37;;;;;;;4.18;3.70;;;28.20;55.00;;;;;;5113306;28;20037;-78
2023/07/05 05:59:03;;;;;;;3.67;2.85;;;28.20;55.00;;;;;;5114162;28;20031;-78
2023/07/05 06:01:29;;;;;;;6.20;3.55;;;28.30;55.00;;;;;;5114655;28;20122;-78
2023/07/05 06:03:55;;;;;;;4.70;3.70;;;28.30;55.00;;;;;;5113959;28;20032;-78
2023/07/05 06:06:20;;;;;;;4.18;3.30;;;28.30;55.00;;;;;;5114293;28;20043;-78
2023/07/05 06:08:46;;;;;;;4.93;3.08;;;28.40;55.00;;;;;;5112647;28;20042;-78
2023/07/05 06:11:12;;;;;;;5.68;3.85;;;28.30;55.00;;;;;;5113880;28;20038;-78
2023/07/05 06:13:38;;;;;;;5.70;3.58;;;28.30;55.00;;;;;;5112708;28;20122;-78
2023/07/05 06:16:05;;;;;;;3.40;3.10;;;28.30;55.00;;;;;;5111391;28;20114;-78
2023/07/05 06:18:31;;;;;;;6.93;3.40;;;28.30;54.90;;;;;;5112405;28;20051;-78
2023/07/05 06:20:56;;;;;;;3.75;3.30;;;28.30;55.00;;;;;;5113971;28;20491;-78
2023/07/05 06:23:23;;;;;;;2.97;2.15;;;28.40;54.90;;;;;;5112440;28;20035;-78
2023/07/05 06:25:50;;;;;;;1.70;1.60;;;28.30;54.90;;;;;;5113585;28;20036;-77
2023/07/05 06:28:17;;;;;;;3.40;3.10;;;28.30;54.90;;;;;;5113570;27;20062;-78
2023/07/05 06:30:46;;;;;;;3.80;3.40;;;28.40;55.00;;;;;;5095180;28;20050;-78
2023/07/05 06:33:14;;;;;;;3.53;2.90;;;28.30;54.90;;;;;;5112282;28;20032;-78
2023/07/05 06:35:40;;;;;;;1.55;1.45;;;28.20;54.90;;;;;;5112122;28;20032;-77
2023/07/05 06:38:06;;;;;;;3.05;2.75;;;28.40;54.90;;;;;;5113453;28;20039;-78
2023/07/05 06:40:32;;;;;;;1.92;1.75;;;28.30;55.00;;;;;;5113171;28;20123;-78
2023/07/05 06:42:58;;;;;;;2.63;1.95;;;28.40;54.90;;;;;;5113152;27;20145;-78
2023/07/05 06:45:29;;;;;;;3.47;2.85;;;28.20;54.90;;;;;;5111716;28;20063;-77
2023/07/05 06:47:55;;;;;;;1.80;1.70;;;28.20;55.00;;;;;;5113309;28;20037;-78
2023/07/05 06:50:21;;;;;;;1.83;1.60;;;28.20;55.00;;;;;;5113153;28;20332;-78
2023/07/05 06:52:47;;;;;;;1.45;1.35;;;28.40;55.00;;;;;;5113119;28;20076;-78
2023/07/05 06:55:13;;;;;;;1.88;1.70;;;28.30;55.00;;;;;;5112989;27;20039;-78
2023/07/05 06:57:39;;;;;;;1.38;1.27;;;28.40;55.00;;;;;;5113413;28;20115;-78
2023/07/05 07:00:09;;;;;;;3.72;3.20;;;28.30;55.00;;;;;;5112859;28;20040;-78
2023/07/05 07:02:35;;;;;;;1.35;1.23;;;28.30;55.00;;;;;;5113098;28;20498;-77
2023/07/05 07:05:01;;;;;;;4.53;3.25;;;28.30;55.10;;;;;;5113236;28;20471;-78
2023/07/05 07:07:28;;;;;;;1.52;1.42;;;28.40;55.00;;;;;;5112839;28;20038;-78
2023/07/05 07:09:54;;;;;;;1.60;1.50;;;28.20;55.00;;;;;;5111336;28;20035;-78
2023/07/05 07:12:20;;;;;;;1.30;1.20;;;28.10;55.00;;;;;;5112828;28;20024;-78
2023/07/05 07:14:46;;;;;;;2.60;2.40;;;28.20;55.10;;;;;;5112853;28;20050;-77
2023/07/05 07:17:11;;;;;;;6.45;3.85;;;28.20;55.10;;;;;;5112818;28;20036;-78
2023/07/05 07:19:37;;;;;;;3.35;3.03;;;28.40;55.10;;;;;;5111169;28;20123;-78
2023/07/05 07:22:05;;;;;;;4.18;2.45;;;28.40;55.00;;;;;;5112500;28;20114;-78
2023/07/05 07:24:31;;;;;;;1.38;1.27;;;28.30;55.00;;;;;;5112328;28;20039;-78
2023/07/05 07:26:57;;;;;;;2.38;1.80;;;28.30;55.00;;;;;;5112532;28;20122;-78
2023/07/05 07:29:23;;;;;;;1.75;1.55;;;28.40;55.00;;;;;;5111228;28;20028;-78
2023/07/05 07:31:49;;;;;;;3.83;2.70;;;28.30;55.00;;;;;;5112341;28;20043;-78
2023/07/05 07:34:15;;;;;;;2.38;1.80;;;28.40;55.00;;;;;;5112320;28;20471;-78
2023/07/05 07:36:41;;;;;;;1.52;1.42;;;28.30;55.00;;;;;;5110874;28;20027;-78
2023/07/05 07:39:07;;;;;;;1.42;1.33;;;28.30;55.00;;;;;;5112130;28;20114;-78
2023/07/05 07:41:37;;;;;;;1.52;1.42;;;28.30;55.00;;;;;;5110804;28;20157;-78
2023/07/05 07:44:08;;;;;;;1.60;1.40;;;28.10;55.00;;;;;;5112178;28;20044;-78
2023/07/05 07:46:36;;;;;;;4.28;3.35;;;28.20;55.00;;;;;;5111991;28;20036;-78
2023/07/05 07:49:04;;;;;;;1.80;1.55;;;28.30;55.00;;;;;;5111918;28;20035;-78
2023/07/05 07:51:34;;;;;;;1.38;1.27;;;28.20;55.00;;;;;;5111945;28;20065;-78
2023/07/05 07:54:00;;;;;;;1.52;1.42;;;28.20;55.00;;;;;;5111941;28;20134;-78
2023/07/05 07:56:27;;;;;;;4.45;3.38;;;28.30;55.00;;;;;;5110707;28;20091;-78
2023/07/05 07:58:55;;;;;;;1.95;1.83;;;28.20;55.10;;;;;;5111997;28;20039;-78
2023/07/05 08:01:30;;;;;;;1.48;1.38;;;28.20;55.10;;;;;;5111888;28;20113;-77
2023/07/05 08:03:58;;;;;;;1.60;1.40;;;28.30;55.10;;;;;;5111688;27;20449;-78
2023/07/05 08:06:36;;;;;;;2.83;2.22;;;28.10;55.10;;;;;;5111802;28;20074;-78
2023/07/05 08:09:06;;;;;;;1.85;1.75;;;28.30;55.10;;;;;;5111680;28;20440;-78
2023/07/05 08:11:32;;;;;;;1.60;1.50;;;28.20;55.20;;;;;;5110580;28;20432;-78
2023/07/05 08:13:58;;;;;;;1.52;1.40;;;28.20;55.10;;;;;;5111870;28;20043;-78
2023/07/05 08:16:25;;;;;;;3.13;1.95;;;28.30;55.20;;;;;;5111882;28;20032;-78
2023/07/05 08:18:51;;;;;;;1.45;1.35;;;28.20;55.10;;;;;;5111423;28;20031;-78
2023/07/05 08:21:17;;;;;;;1.95;1.38;;;28.40;55.20;;;;;;5111744;28;20486;-78
2023/07/05 08:23:44;;;;;;;2.25;1.63;;;28.30;55.20;;;;;;5110726;28;20092;-78
2023/07/05 08:26:11;;;;;;;2.50;2.30;;;28.20;55.10;;;;;;5111904;28;20540;-78
2023/07/05 08:28:37;;;;;;;1.45;1.35;;;28.20;55.20;;;;;;5111591;28;20028;-78
2023/07/05 08:31:05;;;;;;;1.52;1.42;;;28.50;55.10;;;;;;5111537;28;20024;-79
2023/07/05 08:33:33;;;;;;;1.40;1.30;;;28.30;55.10;;;;;;5111514;28;20118;-78
2023/07/05 08:36:13;;;;;;;2.58;2.38;;;28.20;55.10;;;;;;5111647;28;20040;-78
2023/07/05 08:38:50;;;;;;;1.35;1.25;;;28.40;55.10;;;;;;5111726;28;20074;-78
2023/07/05 08:41:31;;;;;;;2.75;2.45;;;28.30;55.10;;;;;;5115108;28;20399;-78
2023/07/05 08:44:19;;;;;;;4.00;3.08;;;28.40;55.10;;;;;;5097259;28;20547;-78
2023/07/05 08:46:56;;;;;;;2.50;1.90;;;28.40;55.10;;;;;;5115602;28;20035;-78
2023/07/05 08:49:32;;;;;;;1.60;1.50;;;28.30;55.10;;;;;;5115378;28;20368;-78
2023/07/05 08:52:00;;;;;;;1.50;1.40;;;28.20;55.10;;;;;;5115312;28;20395;-78
2023/07/05 08:54:32;;;;;;;1.60;1.50;;;28.30;55.10;;;;;;5115468;28;20042;-78
2023/07/05 08:57:36;;;;;;;2.10;1.23;;;28.20;55.10;;;;;;5097291;28;20043;-78
2023/07/05 09:00:11;;;;;;;1.77;1.67;;;28.20;55.10;;;;;;5055191;28;20048;-78
2023/07/05 09:02:38;;;;;;;2.33;1.20;;;28.30;55.10;;;;;;5072076;28;20114;-78
2023/07/05 09:05:16;;;;;;;1.70;1.52;;;28.20;55.20;;;;;;5071972;28;20043;-78
2023/07/05 09:08:00;;;;;;;1.40;1.30;;;28.20;55.20;;;;;;5055366;28;20576;-78
2023/07/05 09:10:37;;;;;;;2.33;2.05;;;28.20;55.20;;;;;;5055149;28;20127;-78
2023/07/05 09:13:17;;;;;;;2.33;2.13;;;28.20;55.20;;;;;;5071852;28;20576;-78
2023/07/05 09:16:14;;;;;;;2.45;1.50;;;28.30;55.30;;;;;;5055228;28;20070;-78
2023/07/05 09:19:16;;;;;;;1.67;1.52;;;28.20;55.30;;;;;;5071779;28;20082;-78
2023/07/05 09:21:49;;;;;;;1.83;1.67;;;28.20;55.30;;;;;;5011779;28;20049;-78
2023/07/05 09:24:36;;;;;;;1.77;1.25;;;28.20;55.30;;;;;;5011769;28;20049;-78
2023/07/05 09:27:09;;;;;;;1.48;1.38;;;28.20;55.30;;;;;;5015221;28;20873;-78
2023/07/05 09:30:13;;;;;;;2.53;1.52;;;28.30;55.30;;;;;;5011643;28;20045;-78
2023/07/05 09:32:46;;;;;;;1.75;1.58;;;28.40;55.30;;;;;;4956379;28;20034;-77
2023/07/05 09:35:16;;;;;;;5.60;3.42;;;28.40;55.30;;;;;;4985273;28;20045;-78
2023/07/05 09:37:58;;;;;;;1.60;1.50;;;28.30;55.30;;;;;;5011868;28;20057;-78
2023/07/05 09:40:29;;;;;;;3.28;2.28;;;28.40;55.20;;;;;;5011775;28;20096;-78
2023/07/05 09:43:11;;;;;;;4.97;3.00;;;28.40;55.20;;;;;;5011653;28;20129;-78
2023/07/05 09:45:37;;;;;;;2.03;1.88;;;28.20;55.20;;;;;;5011597;28;20042;-78
2023/07/05 09:48:06;;;;;;;2.65;2.13;;;28.40;55.20;;;;;;5011481;28;20524;-77
2023/07/05 09:50:32;;;;;;;2.58;1.73;;;28.20;55.20;;;;;;5011160;28;20052;-78
2023/07/05 09:53:23;;;;;;;2.00;1.90;;;28.40;55.20;;;;;;5012656;28;20398;-77
2023/07/05 09:56:15;;;;;;;7.07;4.55;;;28.20;55.20;;;;;;4991915;28;20065;-78
2023/07/05 09:58:44;;;;;;;4.63;3.93;;;28.20;55.20;;;;;;5009167;28;20045;-78
2023/07/05 10:01:21;;;;;;;4.05;3.60;;;28.30;55.20;;;;;;5030881;28;20797;-77
2023/07/05 10:03:56;;;;;;;1.38;1.27;;;28.20;55.30;;;;;;5031000;28;20057;-78
2023/07/05 10:06:25;;;;;;;1.58;1.48;;;28.30;55.20;;;;;;5015462;28;20496;-77
2023/07/05 10:08:53;;;;;;;1.90;1.67;;;28.30;55.30;;;;;;5034486;28;20165;-78
2023/07/05 10:11:24;;;;;;;1.92;1.83;;;28.30;55.30;;;;;;5050679;28;20059;-78
2023/07/05 10:14:12;;;;;;;2.30;2.08;;;28.20;55.30;;;;;;5034263;28;20060;-78
2023/07/05 10:16:49;;;;;;;3.30;2.22;;;28.20;55.30;;;;;;5050588;28;20136;-77
2023/07/05 10:19:27;;;;;;;1.58;1.48;;;28.30;55.30;;;;;;5050607;28;20049;-78
2023/07/05 10:22:01;;;;;;;3.20;2.78;;;28.30;55.30;;;;;;5050496;28;20148;-77
2023/07/05 10:24:30;;;;;;;5.05;4.55;;;28.30;55.30;;;;;;5050602;28;20048;-77
2023/07/05 10:27:15;;;;;;;3.92;1.77;;;28.20;55.40;;;;;;5050463;28;20041;-78
2023/07/05 10:29:41;;;;;;;2.47;1.67;;;28.10;55.40;;;;;;5030364;28;20046;-78
2023/07/05 10:32:18;;;;;;;1.58;1.48;;;28.30;55.40;;;;;;5042540;28;20496;-78
2023/07/05 10:34:49;;;;;;;1.60;1.50;;;28.10;55.40;;;;;;5090814;28;20056;-78
2023/07/05 10:37:36;;;;;;;2.45;1.80;;;28.20;55.50;;;;;;5073800;28;20028;-78
2023/07/05 10:40:05;;;;;;;1.80;1.58;;;28.10;55.60;;;;;;5090517;28;20407;-78
2023/07/05 10:42:32;;;;;;;4.50;3.40;;;28.20;55.50;;;;;;5090604;28;20079;-78
2023/07/05 10:45:00;;;;;;;5.47;4.05;;;28.30;55.60;;;;;;5090131;28;20052;-77
2023/07/05 10:47:27;;;;;;;1.95;1.38;;;28.30;55.60;;;;;;5090532;28;20430;-78
2023/07/05 10:50:06;;;;;;;3.65;2.60;;;28.20;55.60;;;;;;5090129;28;20539;-78
2023/07/05 10:52:36;;;;;;;2.17;1.95;;;28.30;55.60;;;;;;5090045;28;20078;-78
2023/07/05 10:55:14;;;;;;;6.05;3.45;;;28.30;55.60;;;;;;5089905;28;20059;-77
2023/07/05 10:57:43;;;;;;;1.55;1.45;;;28.30;55.60;;;;;;5056242;28;20119;-77
2023/07/05 11:00:37;;;;;;;1.95;1.75;;;28.30;55.60;;;;;;5096254;28;20495;-78
2023/07/05 11:03:25;;;;;;;1.40;1.30;;;28.30;55.50;;;;;;5112380;28;20035;-78
2023/07/05 11:05:55;;;;;;;1.48;1.35;;;28.30;55.50;;;;;;5112983;28;20032;-78
2023/07/05 11:08:37;;;;;;;2.10;1.90;;;28.40;55.50;;;;;;5113045;28;20043;-78
2023/07/05 11:11:11;;;;;;;1.70;1.60;;;28.30;55.50;;;;;;5112785;28;20506;-78
2023/07/05 11:13:37;;;;;;;1.60;1.50;;;28.50;55.40;;;;;;5112749;28;20027;-78
2023/07/05 11:16:03;;;;;;;1.45;1.35;;;28.40;55.40;;;;;;5112699;28;20436;-78
2023/07/05 11:18:29;;;;;;;5.57;4.90;;;28.50;55.40;;;;;;5110417;28;20084;-77
2023/07/05 11:20:57;;;;;;;3.88;2.88;;;28.50;55.40;;;;;;5112677;28;20118;-78
2023/07/05 11:23:44;;;;;;;1.67;1.58;;;28.50;55.40;;;;;;5112751;28;20074;-77
2023/07/05 11:26:11;;;;;;;4.35;3.22;;;28.30;55.30;;;;;;5112441;28;20081;-78
2023/07/05 11:28:42;;;;;;;1.70;1.55;;;28.40;55.30;;;;;;5112376;28;20481;-78
2023/07/05 11:31:30;;;;;;;1.60;1.50;;;28.70;55.30;;;;;;5112224;28;20441;-78
2023/07/05 11:34:25;;;;;;;1.40;1.30;;;28.40;55.30;;;;;;5112397;28;20395;-78
2023/07/05 11:37:02;;;;;;;1.65;1.55;;;28.50;55.20;;;;;;5052465;28;20059;-77
2023/07/05 11:39:38;;;;;;;2.08;1.73;;;28.50;55.20;;;;;;5069235;28;20044;-78
2023/07/05 11:42:13;;;;;;;1.88;1.77;;;28.60;55.20;;;;;;5068998;28;20439;-78
2023/07/05 11:44:40;;;;;;;1.65;1.55;;;28.60;55.10;;;;;;5068968;28;20110;-78
2023/07/05 11:47:30;;;;;;;1.95;1.83;;;28.60;55.10;;;;;;5052384;28;20089;-78
2023/07/05 11:49:58;;;;;;;3.67;3.38;;;28.60;55.10;;;;;;5009392;28;20041;-78
2023/07/05 11:52:26;;;;;;;1.95;1.80;;;28.60;55.10;;;;;;5009294;28;20096;-78
2023/07/05 11:55:03;;;;;;;1.75;1.58;;;28.70;55.10;;;;;;5009321;28;20073;-78
2023/07/05 11:57:35;;;;;;;1.70;1.60;;;28.60;55.00;;;;;;5009209;28;20130;-78
2023/07/05 12:00:18;;;;;;;1.35;1.25;;;28.70;55.00;;;;;;5009321;28;20046;-77
2023/07/05 12:02:58;;;;;;;1.60;1.50;;;28.70;54.90;;;;;;5008973;28;20428;-77
2023/07/05 12:05:27;;;;;;;2.15;1.80;;;28.70;54.90;;;;;;5009289;28;20041;-78
2023/07/05 12:08:19;;;;;;;1.50;1.40;;;28.70;54.90;;;;;;5008956;28;20056;-77
2023/07/05 12:10:54;;;;;;;1.50;1.40;;;28.70;54.90;;;;;;4969962;28;20495;-78
2023/07/05 12:13:24;;;;;;;1.67;1.58;;;28.70;54.80;;;;;;4984812;28;20054;-78
2023/07/05 12:15:50;;;;;;;1.95;1.20;;;28.60;54.80;;;;;;5008565;28;20146;-77
2023/07/05 12:18:17;;;;;;;1.48;1.38;;;28.70;54.80;;;;;;5025105;28;20069;-78
2023/07/05 12:20:48;;;;;;;1.85;1.60;;;28.70;54.80;;;;;;5008826;28;20062;-77
2023/07/05 12:23:16;;;;;;;1.70;1.60;;;28.60;54.80;;;;;;5009090;28;20478;-78
2023/07/05 12:25:49;;;;;;;1.60;1.50;;;28.70;54.80;;;;;;5009209;28;20078;-78
2023/07/05 12:28:23;;;;;;;1.65;1.55;;;28.60;54.70;;;;;;5048615;28;20041;-78
2023/07/05 12:30:51;;;;;;;1.70;1.60;;;28.70;54.80;;;;;;5048306;28;20090;-78
2023/07/05 12:33:26;;;;;;;4.25;2.17;;;28.80;54.80;;;;;;5048615;28;20203;-78
2023/07/05 12:36:13;;;;;;;2.03;1.88;;;28.70;54.70;;;;;;5048343;28;20386;-78
2023/07/05 12:38:41;;;;;;;1.63;1.52;;;28.70;54.80;;;;;;5048624;28;20782;-78
2023/07/05 12:41:18;;;;;;;1.48;1.38;;;28.50;54.80;;;;;;5048443;28;20452;-77
2023/07/05 12:43:45;;;;;;;2.00;1.70;;;28.50;54.70;;;;;;5048512;28;20040;-77
2023/07/05 12:46:22;;;;;;;2.20;1.52;;;28.60;54.80;;;;;;5048469;28;20629;-77
2023/07/05 12:48:49;;;;;;;1.80;1.48;;;28.70;54.80;;;;;;5125854;28;20031;-77
2023/07/05 12:51:22;;;;;;;1.88;1.65;;;28.70;54.80;;;;;;5129278;28;20047;-78
2023/07/05 12:53:56;;;;;;;1.50;1.40;;;28.40;54.80;;;;;;5129551;28;20050;-77
2023/07/05 12:56:34;;;;;;;1.60;1.38;;;28.60;54.90;;;;;;5112322;28;20054;-78
2023/07/05 12:59:05;;;;;;;1.75;1.65;;;28.70;54.80;;;;;;5129427;28;20451;-78
2023/07/05 13:01:35;;;;;;;1.60;1.48;;;28.50;54.80;;;;;;5129231;28;20039;-78
2023/07/05 13:04:08;;;;;;;1.67;1.30;;;28.60;54.80;;;;;;5129388;28;20058;-77
2023/07/05 13:06:35;;;;;;;1.40;1.30;;;28.60;54.80;;;;;;5109082;28;20066;-77